sensor_id;sensor_type;location;lat;lon;timestamp;P1;durP1;ratioP1;P2;durP2;ratioP2
34643;SDS011;26931;43.498;-1.506;2023-05-07T00:01:57;13.73;;;5.13;;
34643;SDS011;26931;43.498;-1.506;2023-05-07T00:04:23;16.20;;;4.85;;
34643;SDS011;26931;43.498;-1.506;2023-05-07T00:06:49;15.45;;;5.15;;
34643;SDS011;26931;43.498;-1.506;2023-05-07T00:09:16;18.20;;;4.97;;
34643;SDS011;26931;43.498;-1.506;2023-05-07T00:11:42;18.02;;;5.43;;
34643;SDS011;26931;43.498;-1.506;2023-05-07T00:14:08;16.17;;;5.93;;
34643;SDS011;26931;43.498;-1.506;2023-05-07T00:16:34;21.60;;;5.65;;
34643;SDS011;26931;43.498;-1.506;2023-05-07T00:19:00;12.95;;;4.93;;
34643;SDS011;26931;43.498;-1.506;2023-05-07T00:21:26;18.42;;;5.88;;
34643;SDS011;26931;43.498;-1.506;2023-05-07T00:23:53;15.52;;;4.85;;
34643;SDS011;26931;43.498;-1.506;2023-05-07T00:26:19;22.40;;;5.75;;
34643;SDS011;26931;43.498;-1.506;2023-05-07T00:28:46;18.10;;;4.70;;
34643;SDS011;26931;43.498;-1.506;2023-05-07T00:31:12;14.18;;;4.45;;
34643;SDS011;26931;43.498;-1.506;2023-05-07T00:33:38;14.35;;;5.15;;
34643;SDS011;26931;43.498;-1.506;2023-05-07T00:36:04;18.75;;;5.53;;
34643;SDS011;26931;43.498;-1.506;2023-05-07T00:38:30;16.02;;;4.95;;
34643;SDS011;26931;43.498;-1.506;2023-05-07T00:40:56;15.60;;;4.97;;
34643;SDS011;26931;43.498;-1.506;2023-05-07T00:43:22;17.42;;;5.22;;
34643;SDS011;26931;43.498;-1.506;2023-05-07T00:45:48;17.35;;;5.50;;
34643;SDS011;26931;43.498;-1.506;2023-05-07T00:48:15;19.33;;;5.47;;
34643;SDS011;26931;43.498;-1.506;2023-05-07T00:50:41;16.00;;;5.20;;
34643;SDS011;26931;43.498;-1.506;2023-05-07T00:53:07;17.05;;;5.78;;
34643;SDS011;26931;43.498;-1.506;2023-05-07T00:55:34;15.27;;;4.90;;
34643;SDS011;26931;43.498;-1.506;2023-05-07T00:58:02;19.30;;;5.18;;
34643;SDS011;26931;43.498;-1.506;2023-05-07T01:00:28;13.35;;;5.13;;
34643;SDS011;26931;43.498;-1.506;2023-05-07T01:02:54;16.60;;;4.68;;
34643;SDS011;26931;43.498;-1.506;2023-05-07T01:05:20;15.68;;;4.80;;
34643;SDS011;26931;43.498;-1.506;2023-05-07T01:07:48;17.60;;;5.57;;
34643;SDS011;26931;43.498;-1.506;2023-05-07T01:10:17;15.70;;;5.38;;
34643;SDS011;26931;43.498;-1.506;2023-05-07T01:12:44;13.65;;;5.25;;
34643;SDS011;26931;43.498;-1.506;2023-05-07T01:15:10;20.58;;;5.13;;
34643;SDS011;26931;43.498;-1.506;2023-05-07T01:17:38;18.98;;;5.47;;
34643;SDS011;26931;43.498;-1.506;2023-05-07T01:20:06;17.05;;;4.70;;
34643;SDS011;26931;43.498;-1.506;2023-05-07T01:22:36;15.02;;;4.80;;
34643;SDS011;26931;43.498;-1.506;2023-05-07T01:25:04;21.67;;;5.35;;
34643;SDS011;26931;43.498;-1.506;2023-05-07T01:27:31;14.57;;;4.75;;
34643;SDS011;26931;43.498;-1.506;2023-05-07T01:29:58;15.35;;;4.47;;
34643;SDS011;26931;43.498;-1.506;2023-05-07T01:32:38;17.42;;;4.57;;
34643;SDS011;26931;43.498;-1.506;2023-05-07T01:35:14;13.88;;;4.18;;
34643;SDS011;26931;43.498;-1.506;2023-05-07T01:37:46;9.25;;;4.20;;
34643;SDS011;26931;43.498;-1.506;2023-05-07T01:40:12;9.55;;;4.10;;
34643;SDS011;26931;43.498;-1.506;2023-05-07T01:42:39;10.25;;;4.28;;
34643;SDS011;26931;43.498;-1.506;2023-05-07T01:45:07;10.98;;;4.28;;
34643;SDS011;26931;43.498;-1.506;2023-05-07T01:47:33;8.90;;;3.70;;
34643;SDS011;26931;43.498;-1.506;2023-05-07T01:50:00;10.95;;;4.15;;
34643;SDS011;26931;43.498;-1.506;2023-05-07T01:52:27;9.57;;;3.95;;
34643;SDS011;26931;43.498;-1.506;2023-05-07T01:54:53;13.90;;;4.72;;
34643;SDS011;26931;43.498;-1.506;2023-05-07T01:57:20;11.48;;;4.60;;
34643;SDS011;26931;43.498;-1.506;2023-05-07T01:59:46;14.88;;;4.43;;
34643;SDS011;26931;43.498;-1.506;2023-05-07T02:02:12;10.82;;;5.20;;
34643;SDS011;26931;43.498;-1.506;2023-05-07T02:04:38;12.27;;;4.43;;
34643;SDS011;26931;43.498;-1.506;2023-05-07T02:07:04;10.45;;;4.60;;
34643;SDS011;26931;43.498;-1.506;2023-05-07T02:09:30;11.25;;;4.57;;
34643;SDS011;26931;43.498;-1.506;2023-05-07T02:11:56;12.82;;;4.20;;
34643;SDS011;26931;43.498;-1.506;2023-05-07T02:14:22;9.07;;;3.97;;
34643;SDS011;26931;43.498;-1.506;2023-05-07T02:16:48;12.48;;;4.18;;
34643;SDS011;26931;43.498;-1.506;2023-05-07T02:19:14;12.27;;;5.38;;
34643;SDS011;26931;43.498;-1.506;2023-05-07T02:21:40;11.15;;;4.10;;
34643;SDS011;26931;43.498;-1.506;2023-05-07T02:24:07;12.90;;;4.63;;
34643;SDS011;26931;43.498;-1.506;2023-05-07T02:26:33;10.50;;;4.38;;
34643;SDS011;26931;43.498;-1.506;2023-05-07T02:28:59;9.95;;;4.30;;
34643;SDS011;26931;43.498;-1.506;2023-05-07T02:31:25;14.93;;;4.80;;
34643;SDS011;26931;43.498;-1.506;2023-05-07T02:33:54;11.68;;;4.32;;
34643;SDS011;26931;43.498;-1.506;2023-05-07T02:36:20;11.77;;;4.50;;
34643;SDS011;26931;43.498;-1.506;2023-05-07T02:38:46;7.70;;;4.10;;
34643;SDS011;26931;43.498;-1.506;2023-05-07T02:41:12;11.45;;;4.13;;
34643;SDS011;26931;43.498;-1.506;2023-05-07T02:43:38;13.13;;;4.45;;
34643;SDS011;26931;43.498;-1.506;2023-05-07T02:46:05;8.82;;;3.95;;
34643;SDS011;26931;43.498;-1.506;2023-05-07T02:48:32;7.90;;;4.00;;
34643;SDS011;26931;43.498;-1.506;2023-05-07T02:50:59;11.63;;;4.43;;
34643;SDS011;26931;43.498;-1.506;2023-05-07T02:53:25;8.82;;;3.72;;
34643;SDS011;26931;43.498;-1.506;2023-05-07T02:55:55;9.13;;;3.35;;
34643;SDS011;26931;43.498;-1.506;2023-05-07T02:58:23;13.00;;;3.85;;
34643;SDS011;26931;43.498;-1.506;2023-05-07T03:00:49;8.95;;;3.58;;
34643;SDS011;26931;43.498;-1.506;2023-05-07T03:03:15;9.90;;;3.42;;
34643;SDS011;26931;43.498;-1.506;2023-05-07T03:05:42;8.32;;;3.80;;
34643;SDS011;26931;43.498;-1.506;2023-05-07T03:08:08;6.10;;;3.10;;
34643;SDS011;26931;43.498;-1.506;2023-05-07T03:10:35;9.73;;;4.00;;
34643;SDS011;26931;43.498;-1.506;2023-05-07T03:13:02;10.57;;;3.83;;
34643;SDS011;26931;43.498;-1.506;2023-05-07T03:15:29;11.57;;;3.30;;
34643;SDS011;26931;43.498;-1.506;2023-05-07T03:17:55;6.28;;;3.28;;
34643;SDS011;26931;43.498;-1.506;2023-05-07T03:20:21;9.38;;;4.25;;
34643;SDS011;26931;43.498;-1.506;2023-05-07T03:22:47;7.55;;;3.67;;
34643;SDS011;26931;43.498;-1.506;2023-05-07T03:25:13;10.93;;;3.97;;
34643;SDS011;26931;43.498;-1.506;2023-05-07T03:27:40;7.07;;;3.88;;
34643;SDS011;26931;43.498;-1.506;2023-05-07T03:30:09;9.63;;;3.67;;
34643;SDS011;26931;43.498;-1.506;2023-05-07T03:32:36;9.60;;;4.20;;
34643;SDS011;26931;43.498;-1.506;2023-05-07T03:35:02;10.00;;;3.30;;
34643;SDS011;26931;43.498;-1.506;2023-05-07T03:37:28;10.27;;;3.80;;
34643;SDS011;26931;43.498;-1.506;2023-05-07T03:39:55;11.15;;;3.90;;
34643;SDS011;26931;43.498;-1.506;2023-05-07T03:42:21;7.70;;;3.50;;
34643;SDS011;26931;43.498;-1.506;2023-05-07T03:44:47;15.27;;;4.47;;
34643;SDS011;26931;43.498;-1.506;2023-05-07T03:47:13;13.45;;;4.20;;
34643;SDS011;26931;43.498;-1.506;2023-05-07T03:49:39;10.95;;;4.47;;
34643;SDS011;26931;43.498;-1.506;2023-05-07T03:52:06;13.77;;;4.53;;
34643;SDS011;26931;43.498;-1.506;2023-05-07T03:54:32;11.05;;;4.85;;
34643;SDS011;26931;43.498;-1.506;2023-05-07T03:56:58;16.08;;;4.97;;
34643;SDS011;26931;43.498;-1.506;2023-05-07T03:59:24;16.98;;;5.38;;
34643;SDS011;26931;43.498;-1.506;2023-05-07T04:01:50;16.20;;;5.65;;
34643;SDS011;26931;43.498;-1.506;2023-05-07T04:04:16;13.55;;;4.90;;
34643;SDS011;26931;43.498;-1.506;2023-05-07T04:06:42;14.50;;;4.78;;
34643;SDS011;26931;43.498;-1.506;2023-05-07T04:09:08;13.60;;;5.20;;
34643;SDS011;26931;43.498;-1.506;2023-05-07T04:11:35;14.75;;;5.20;;
34643;SDS011;26931;43.498;-1.506;2023-05-07T04:14:01;17.45;;;5.13;;
34643;SDS011;26931;43.498;-1.506;2023-05-07T04:16:27;17.27;;;5.15;;
34643;SDS011;26931;43.498;-1.506;2023-05-07T04:18:53;14.38;;;4.88;;
34643;SDS011;26931;43.498;-1.506;2023-05-07T04:21:20;15.90;;;5.43;;
34643;SDS011;26931;43.498;-1.506;2023-05-07T04:23:46;11.55;;;5.03;;
34643;SDS011;26931;43.498;-1.506;2023-05-07T04:26:13;14.63;;;5.32;;
34643;SDS011;26931;43.498;-1.506;2023-05-07T04:28:40;11.98;;;4.57;;
34643;SDS011;26931;43.498;-1.506;2023-05-07T04:31:06;15.55;;;5.47;;
34643;SDS011;26931;43.498;-1.506;2023-05-07T04:33:33;13.93;;;5.63;;
34643;SDS011;26931;43.498;-1.506;2023-05-07T04:36:02;14.05;;;5.35;;
34643;SDS011;26931;43.498;-1.506;2023-05-07T04:38:29;20.95;;;5.70;;
34643;SDS011;26931;43.498;-1.506;2023-05-07T04:40:56;18.13;;;5.80;;
34643;SDS011;26931;43.498;-1.506;2023-05-07T04:43:23;18.35;;;5.53;;
34643;SDS011;26931;43.498;-1.506;2023-05-07T04:45:50;16.13;;;5.25;;
34643;SDS011;26931;43.498;-1.506;2023-05-07T04:48:17;14.20;;;5.22;;
34643;SDS011;26931;43.498;-1.506;2023-05-07T04:50:49;13.00;;;5.18;;
34643;SDS011;26931;43.498;-1.506;2023-05-07T04:53:16;12.68;;;5.13;;
34643;SDS011;26931;43.498;-1.506;2023-05-07T04:55:43;16.55;;;5.63;;
34643;SDS011;26931;43.498;-1.506;2023-05-07T04:58:10;21.60;;;6.43;;
34643;SDS011;26931;43.498;-1.506;2023-05-07T05:00:37;19.63;;;5.68;;
34643;SDS011;26931;43.498;-1.506;2023-05-07T05:03:04;16.15;;;5.97;;
34643;SDS011;26931;43.498;-1.506;2023-05-07T05:05:32;20.48;;;6.07;;
34643;SDS011;26931;43.498;-1.506;2023-05-07T05:07:58;22.45;;;6.63;;
34643;SDS011;26931;43.498;-1.506;2023-05-07T05:10:24;17.98;;;5.93;;
34643;SDS011;26931;43.498;-1.506;2023-05-07T05:12:51;19.30;;;5.68;;
34643;SDS011;26931;43.498;-1.506;2023-05-07T05:15:17;17.05;;;5.65;;
34643;SDS011;26931;43.498;-1.506;2023-05-07T05:17:43;14.25;;;5.68;;
34643;SDS011;26931;43.498;-1.506;2023-05-07T05:20:09;16.27;;;6.03;;
34643;SDS011;26931;43.498;-1.506;2023-05-07T05:22:38;17.17;;;5.85;;
34643;SDS011;26931;43.498;-1.506;2023-05-07T05:25:04;19.63;;;5.38;;
34643;SDS011;26931;43.498;-1.506;2023-05-07T05:27:31;12.02;;;4.85;;
34643;SDS011;26931;43.498;-1.506;2023-05-07T05:29:57;11.32;;;4.55;;
34643;SDS011;26931;43.498;-1.506;2023-05-07T05:32:23;12.77;;;5.03;;
34643;SDS011;26931;43.498;-1.506;2023-05-07T05:34:49;14.20;;;4.47;;
34643;SDS011;26931;43.498;-1.506;2023-05-07T05:37:17;14.00;;;4.85;;
34643;SDS011;26931;43.498;-1.506;2023-05-07T05:39:43;12.65;;;5.03;;
34643;SDS011;26931;43.498;-1.506;2023-05-07T05:42:09;11.43;;;4.57;;
34643;SDS011;26931;43.498;-1.506;2023-05-07T05:44:35;16.40;;;4.53;;
34643;SDS011;26931;43.498;-1.506;2023-05-07T05:47:02;9.43;;;4.40;;
34643;SDS011;26931;43.498;-1.506;2023-05-07T05:49:28;13.70;;;4.93;;
34643;SDS011;26931;43.498;-1.506;2023-05-07T05:51:54;11.00;;;4.65;;
34643;SDS011;26931;43.498;-1.506;2023-05-07T05:54:21;12.57;;;4.40;;
34643;SDS011;26931;43.498;-1.506;2023-05-07T05:56:47;11.40;;;5.15;;
34643;SDS011;26931;43.498;-1.506;2023-05-07T05:59:13;13.20;;;4.10;;
34643;SDS011;26931;43.498;-1.506;2023-05-07T06:01:39;10.70;;;4.15;;
34643;SDS011;26931;43.498;-1.506;2023-05-07T06:04:05;9.23;;;4.13;;
34643;SDS011;26931;43.498;-1.506;2023-05-07T06:06:31;9.45;;;4.07;;
34643;SDS011;26931;43.498;-1.506;2023-05-07T06:08:57;10.05;;;4.13;;
34643;SDS011;26931;43.498;-1.506;2023-05-07T06:11:23;6.63;;;3.90;;
34643;SDS011;26931;43.498;-1.506;2023-05-07T06:13:50;13.52;;;4.13;;
34643;SDS011;26931;43.498;-1.506;2023-05-07T06:16:16;9.57;;;4.13;;
34643;SDS011;26931;43.498;-1.506;2023-05-07T06:18:42;8.20;;;3.90;;
34643;SDS011;26931;43.498;-1.506;2023-05-07T06:21:10;14.02;;;5.32;;
34643;SDS011;26931;43.498;-1.506;2023-05-07T06:23:36;11.25;;;4.45;;
34643;SDS011;26931;43.498;-1.506;2023-05-07T06:26:02;10.38;;;5.40;;
34643;SDS011;26931;43.498;-1.506;2023-05-07T06:28:28;9.98;;;5.32;;
34643;SDS011;26931;43.498;-1.506;2023-05-07T06:31:13;11.23;;;5.60;;
34643;SDS011;26931;43.498;-1.506;2023-05-07T06:33:41;12.80;;;6.60;;
34643;SDS011;26931;43.498;-1.506;2023-05-07T06:36:08;15.80;;;6.25;;
34643;SDS011;26931;43.498;-1.506;2023-05-07T06:38:35;14.18;;;6.25;;
34643;SDS011;26931;43.498;-1.506;2023-05-07T06:41:01;15.40;;;5.88;;
34643;SDS011;26931;43.498;-1.506;2023-05-07T06:43:27;12.32;;;5.15;;
34643;SDS011;26931;43.498;-1.506;2023-05-07T06:45:53;14.02;;;5.55;;
34643;SDS011;26931;43.498;-1.506;2023-05-07T06:48:19;11.57;;;5.32;;
34643;SDS011;26931;43.498;-1.506;2023-05-07T06:50:45;12.68;;;4.60;;
34643;SDS011;26931;43.498;-1.506;2023-05-07T06:53:11;9.43;;;4.80;;
34643;SDS011;26931;43.498;-1.506;2023-05-07T06:55:37;11.88;;;5.03;;
34643;SDS011;26931;43.498;-1.506;2023-05-07T06:58:03;12.15;;;3.95;;
34643;SDS011;26931;43.498;-1.506;2023-05-07T07:00:31;10.18;;;4.90;;
34643;SDS011;26931;43.498;-1.506;2023-05-07T07:02:57;8.38;;;4.00;;
34643;SDS011;26931;43.498;-1.506;2023-05-07T07:05:24;7.93;;;4.00;;
34643;SDS011;26931;43.498;-1.506;2023-05-07T07:07:50;10.30;;;4.38;;
34643;SDS011;26931;43.498;-1.506;2023-05-07T07:10:19;7.93;;;3.58;;
34643;SDS011;26931;43.498;-1.506;2023-05-07T07:12:45;10.55;;;3.50;;
34643;SDS011;26931;43.498;-1.506;2023-05-07T07:15:11;12.23;;;4.15;;
34643;SDS011;26931;43.498;-1.506;2023-05-07T07:17:38;10.65;;;4.32;;
34643;SDS011;26931;43.498;-1.506;2023-05-07T07:20:05;8.52;;;4.22;;
34643;SDS011;26931;43.498;-1.506;2023-05-07T07:22:31;10.35;;;4.53;;
34643;SDS011;26931;43.498;-1.506;2023-05-07T07:24:57;7.43;;;4.10;;
34643;SDS011;26931;43.498;-1.506;2023-05-07T07:27:23;8.32;;;3.95;;
34643;SDS011;26931;43.498;-1.506;2023-05-07T07:29:49;12.02;;;4.82;;
34643;SDS011;26931;43.498;-1.506;2023-05-07T07:32:15;8.90;;;4.20;;
34643;SDS011;26931;43.498;-1.506;2023-05-07T07:34:41;8.02;;;3.45;;
34643;SDS011;26931;43.498;-1.506;2023-05-07T07:37:07;11.60;;;4.38;;
34643;SDS011;26931;43.498;-1.506;2023-05-07T07:39:36;11.38;;;4.32;;
34643;SDS011;26931;43.498;-1.506;2023-05-07T07:42:06;10.95;;;4.07;;
34643;SDS011;26931;43.498;-1.506;2023-05-07T07:44:32;10.68;;;3.55;;
34643;SDS011;26931;43.498;-1.506;2023-05-07T07:46:58;11.57;;;4.07;;
34643;SDS011;26931;43.498;-1.506;2023-05-07T07:49:24;11.27;;;4.30;;
34643;SDS011;26931;43.498;-1.506;2023-05-07T07:51:50;13.05;;;5.18;;
34643;SDS011;26931;43.498;-1.506;2023-05-07T07:54:16;13.57;;;5.00;;
34643;SDS011;26931;43.498;-1.506;2023-05-07T07:56:42;10.75;;;4.63;;
34643;SDS011;26931;43.498;-1.506;2023-05-07T07:59:08;7.85;;;3.67;;
34643;SDS011;26931;43.498;-1.506;2023-05-07T08:01:34;12.45;;;5.13;;
34643;SDS011;26931;43.498;-1.506;2023-05-07T08:04:00;11.98;;;4.88;;
34643;SDS011;26931;43.498;-1.506;2023-05-07T08:06:28;13.35;;;5.07;;
34643;SDS011;26931;43.498;-1.506;2023-05-07T08:08:55;12.00;;;4.93;;
34643;SDS011;26931;43.498;-1.506;2023-05-07T08:11:21;9.68;;;5.00;;
34643;SDS011;26931;43.498;-1.506;2023-05-07T08:13:47;10.02;;;4.72;;
34643;SDS011;26931;43.498;-1.506;2023-05-07T08:16:13;15.75;;;5.78;;
34643;SDS011;26931;43.498;-1.506;2023-05-07T08:18:39;10.38;;;5.35;;
34643;SDS011;26931;43.498;-1.506;2023-05-07T08:21:05;11.40;;;5.13;;
34643;SDS011;26931;43.498;-1.506;2023-05-07T08:23:31;11.00;;;4.95;;
34643;SDS011;26931;43.498;-1.506;2023-05-07T08:25:59;10.77;;;5.18;;
34643;SDS011;26931;43.498;-1.506;2023-05-07T08:28:25;7.80;;;4.90;;
34643;SDS011;26931;43.498;-1.506;2023-05-07T08:30:51;9.73;;;4.60;;
34643;SDS011;26931;43.498;-1.506;2023-05-07T08:33:18;11.95;;;4.65;;
34643;SDS011;26931;43.498;-1.506;2023-05-07T08:35:44;10.20;;;4.03;;
34643;SDS011;26931;43.498;-1.506;2023-05-07T08:38:10;14.38;;;3.92;;
34643;SDS011;26931;43.498;-1.506;2023-05-07T08:40:36;7.85;;;4.05;;
34643;SDS011;26931;43.498;-1.506;2023-05-07T08:43:07;8.98;;;4.07;;
34643;SDS011;26931;43.498;-1.506;2023-05-07T08:45:34;9.20;;;4.00;;
34643;SDS011;26931;43.498;-1.506;2023-05-07T08:48:05;10.30;;;4.00;;
34643;SDS011;26931;43.498;-1.506;2023-05-07T08:50:40;7.32;;;3.80;;
34643;SDS011;26931;43.498;-1.506;2023-05-07T08:53:07;8.77;;;3.70;;
34643;SDS011;26931;43.498;-1.506;2023-05-07T08:55:33;7.70;;;3.90;;
34643;SDS011;26931;43.498;-1.506;2023-05-07T08:57:59;7.57;;;3.80;;
34643;SDS011;26931;43.498;-1.506;2023-05-07T09:00:26;6.57;;;3.75;;
34643;SDS011;26931;43.498;-1.506;2023-05-07T09:02:52;8.13;;;4.15;;
34643;SDS011;26931;43.498;-1.506;2023-05-07T09:05:19;9.15;;;3.70;;
34643;SDS011;26931;43.498;-1.506;2023-05-07T09:07:46;9.70;;;4.38;;
34643;SDS011;26931;43.498;-1.506;2023-05-07T09:10:12;8.20;;;4.03;;
34643;SDS011;26931;43.498;-1.506;2023-05-07T09:12:39;8.13;;;4.35;;
34643;SDS011;26931;43.498;-1.506;2023-05-07T09:15:05;7.53;;;3.85;;
34643;SDS011;26931;43.498;-1.506;2023-05-07T09:17:32;10.30;;;4.03;;
34643;SDS011;26931;43.498;-1.506;2023-05-07T09:20:05;12.68;;;4.72;;
34643;SDS011;26931;43.498;-1.506;2023-05-07T09:22:32;9.30;;;4.22;;
34643;SDS011;26931;43.498;-1.506;2023-05-07T09:24:59;9.55;;;4.55;;
34643;SDS011;26931;43.498;-1.506;2023-05-07T09:27:25;8.25;;;4.38;;
34643;SDS011;26931;43.498;-1.506;2023-05-07T09:29:51;10.68;;;5.00;;
34643;SDS011;26931;43.498;-1.506;2023-05-07T09:32:17;11.00;;;4.97;;
34643;SDS011;26931;43.498;-1.506;2023-05-07T09:34:43;12.75;;;5.40;;
34643;SDS011;26931;43.498;-1.506;2023-05-07T09:37:10;11.38;;;5.25;;
34643;SDS011;26931;43.498;-1.506;2023-05-07T09:39:49;10.32;;;5.57;;
34643;SDS011;26931;43.498;-1.506;2023-05-07T09:42:15;12.82;;;5.53;;
34643;SDS011;26931;43.498;-1.506;2023-05-07T09:44:41;11.68;;;5.63;;
34643;SDS011;26931;43.498;-1.506;2023-05-07T09:47:09;11.70;;;5.55;;
34643;SDS011;26931;43.498;-1.506;2023-05-07T09:49:37;11.73;;;5.38;;
34643;SDS011;26931;43.498;-1.506;2023-05-07T09:52:07;9.07;;;5.40;;
34643;SDS011;26931;43.498;-1.506;2023-05-07T09:54:35;11.55;;;5.50;;
34643;SDS011;26931;43.498;-1.506;2023-05-07T09:57:05;12.98;;;5.38;;
34643;SDS011;26931;43.498;-1.506;2023-05-07T09:59:32;16.38;;;6.55;;
34643;SDS011;26931;43.498;-1.506;2023-05-07T10:02:00;15.82;;;6.43;;
34643;SDS011;26931;43.498;-1.506;2023-05-07T10:04:29;16.67;;;6.78;;
34643;SDS011;26931;43.498;-1.506;2023-05-07T10:06:56;19.20;;;7.85;;
34643;SDS011;26931;43.498;-1.506;2023-05-07T10:09:25;15.70;;;7.10;;
34643;SDS011;26931;43.498;-1.506;2023-05-07T10:11:52;13.02;;;6.93;;
34643;SDS011;26931;43.498;-1.506;2023-05-07T10:14:19;13.25;;;5.82;;
34643;SDS011;26931;43.498;-1.506;2023-05-07T10:16:46;16.23;;;5.93;;
34643;SDS011;26931;43.498;-1.506;2023-05-07T10:19:13;12.73;;;5.32;;
34643;SDS011;26931;43.498;-1.506;2023-05-07T10:21:44;11.73;;;5.57;;
34643;SDS011;26931;43.498;-1.506;2023-05-07T10:24:20;14.38;;;4.75;;
34643;SDS011;26931;43.498;-1.506;2023-05-07T10:26:52;11.57;;;4.95;;
34643;SDS011;26931;43.498;-1.506;2023-05-07T10:32:11;9.32;;;4.97;;
34643;SDS011;26931;43.498;-1.506;2023-05-07T10:34:42;8.40;;;4.47;;
34643;SDS011;26931;43.498;-1.506;2023-05-07T10:37:10;9.15;;;4.70;;
34643;SDS011;26931;43.498;-1.506;2023-05-07T10:39:37;8.57;;;4.20;;
34643;SDS011;26931;43.498;-1.506;2023-05-07T10:42:12;11.65;;;4.28;;
34643;SDS011;26931;43.498;-1.506;2023-05-07T10:44:39;8.20;;;4.07;;
34643;SDS011;26931;43.498;-1.506;2023-05-07T10:47:09;9.40;;;4.10;;
34643;SDS011;26931;43.498;-1.506;2023-05-07T10:52:17;11.15;;;4.93;;
34643;SDS011;26931;43.498;-1.506;2023-05-07T10:54:44;12.00;;;4.50;;
34643;SDS011;26931;43.498;-1.506;2023-05-07T11:00:00;9.98;;;4.50;;
34643;SDS011;26931;43.498;-1.506;2023-05-07T11:05:25;14.43;;;5.10;;
34643;SDS011;26931;43.498;-1.506;2023-05-07T11:07:55;13.10;;;4.93;;
34643;SDS011;26931;43.498;-1.506;2023-05-07T11:13:16;12.80;;;5.18;;
34643;SDS011;26931;43.498;-1.506;2023-05-07T11:15:46;11.63;;;5.05;;
34643;SDS011;26931;43.498;-1.506;2023-05-07T11:18:14;12.48;;;5.43;;
34643;SDS011;26931;43.498;-1.506;2023-05-07T11:20:45;11.75;;;4.82;;
34643;SDS011;26931;43.498;-1.506;2023-05-07T11:26:00;11.80;;;5.05;;
34643;SDS011;26931;43.498;-1.506;2023-05-07T11:28:41;17.23;;;5.68;;
34643;SDS011;26931;43.498;-1.506;2023-05-07T11:31:09;15.07;;;5.63;;
34643;SDS011;26931;43.498;-1.506;2023-05-07T11:33:37;12.70;;;4.97;;
34643;SDS011;26931;43.498;-1.506;2023-05-07T11:36:03;17.02;;;6.82;;
34643;SDS011;26931;43.498;-1.506;2023-05-07T11:38:31;17.10;;;6.63;;
34643;SDS011;26931;43.498;-1.506;2023-05-07T11:41:00;20.10;;;6.82;;
34643;SDS011;26931;43.498;-1.506;2023-05-07T11:43:27;19.85;;;6.20;;
34643;SDS011;26931;43.498;-1.506;2023-05-07T11:45:53;14.63;;;5.70;;
34643;SDS011;26931;43.498;-1.506;2023-05-07T11:48:21;17.17;;;6.28;;
34643;SDS011;26931;43.498;-1.506;2023-05-07T11:53:27;17.42;;;6.38;;
34643;SDS011;26931;43.498;-1.506;2023-05-07T11:56:00;17.73;;;7.13;;
34643;SDS011;26931;43.498;-1.506;2023-05-07T11:58:30;23.20;;;9.25;;
34643;SDS011;26931;43.498;-1.506;2023-05-07T12:00:57;21.27;;;7.45;;
34643;SDS011;26931;43.498;-1.506;2023-05-07T12:03:23;17.02;;;6.93;;
34643;SDS011;26931;43.498;-1.506;2023-05-07T12:05:49;15.32;;;6.35;;
34643;SDS011;26931;43.498;-1.506;2023-05-07T12:08:18;16.83;;;5.50;;
34643;SDS011;26931;43.498;-1.506;2023-05-07T12:10:46;20.73;;;6.35;;
34643;SDS011;26931;43.498;-1.506;2023-05-07T12:13:14;14.73;;;4.95;;
34643;SDS011;26931;43.498;-1.506;2023-05-07T12:15:41;17.67;;;5.53;;
34643;SDS011;26931;43.498;-1.506;2023-05-07T12:18:08;17.05;;;5.95;;
34643;SDS011;26931;43.498;-1.506;2023-05-07T12:20:35;23.45;;;6.03;;
34643;SDS011;26931;43.498;-1.506;2023-05-07T12:23:02;19.45;;;5.75;;
34643;SDS011;26931;43.498;-1.506;2023-05-07T12:25:35;18.05;;;6.65;;
34643;SDS011;26931;43.498;-1.506;2023-05-07T12:28:03;21.58;;;6.90;;
34643;SDS011;26931;43.498;-1.506;2023-05-07T12:30:36;19.83;;;5.95;;
34643;SDS011;26931;43.498;-1.506;2023-05-07T12:33:03;17.20;;;6.35;;
34643;SDS011;26931;43.498;-1.506;2023-05-07T12:35:30;16.38;;;6.05;;
34643;SDS011;26931;43.498;-1.506;2023-05-07T12:37:57;16.58;;;6.05;;
34643;SDS011;26931;43.498;-1.506;2023-05-07T12:40:36;21.30;;;5.85;;
34643;SDS011;26931;43.498;-1.506;2023-05-07T12:43:03;16.88;;;4.97;;
34643;SDS011;26931;43.498;-1.506;2023-05-07T12:45:29;17.30;;;5.40;;
34643;SDS011;26931;43.498;-1.506;2023-05-07T12:47:55;20.00;;;6.00;;
34643;SDS011;26931;43.498;-1.506;2023-05-07T12:50:26;17.00;;;5.43;;
34643;SDS011;26931;43.498;-1.506;2023-05-07T12:52:57;17.75;;;5.45;;
34643;SDS011;26931;43.498;-1.506;2023-05-07T12:55:23;17.05;;;5.18;;
34643;SDS011;26931;43.498;-1.506;2023-05-07T12:57:50;11.55;;;4.97;;
34643;SDS011;26931;43.498;-1.506;2023-05-07T13:00:16;18.30;;;5.38;;
34643;SDS011;26931;43.498;-1.506;2023-05-07T13:02:43;18.67;;;5.30;;
34643;SDS011;26931;43.498;-1.506;2023-05-07T13:05:10;13.75;;;4.80;;
34643;SDS011;26931;43.498;-1.506;2023-05-07T13:07:36;18.05;;;4.95;;
34643;SDS011;26931;43.498;-1.506;2023-05-07T13:10:03;21.17;;;6.00;;
34643;SDS011;26931;43.498;-1.506;2023-05-07T13:12:29;26.23;;;6.28;;
34643;SDS011;26931;43.498;-1.506;2023-05-07T13:14:55;24.05;;;6.07;;
34643;SDS011;26931;43.498;-1.506;2023-05-07T13:17:21;18.17;;;5.25;;
34643;SDS011;26931;43.498;-1.506;2023-05-07T13:19:48;20.00;;;5.18;;
34643;SDS011;26931;43.498;-1.506;2023-05-07T13:22:14;20.77;;;5.43;;
34643;SDS011;26931;43.498;-1.506;2023-05-07T13:24:40;18.35;;;5.75;;
34643;SDS011;26931;43.498;-1.506;2023-05-07T13:27:08;20.55;;;5.85;;
34643;SDS011;26931;43.498;-1.506;2023-05-07T13:29:34;23.20;;;5.80;;
34643;SDS011;26931;43.498;-1.506;2023-05-07T13:32:00;19.67;;;5.70;;
34643;SDS011;26931;43.498;-1.506;2023-05-07T13:34:27;17.95;;;5.50;;
34643;SDS011;26931;43.498;-1.506;2023-05-07T13:36:53;21.88;;;6.32;;
34643;SDS011;26931;43.498;-1.506;2023-05-07T13:39:20;21.33;;;5.50;;
34643;SDS011;26931;43.498;-1.506;2023-05-07T13:41:46;23.67;;;6.32;;
34643;SDS011;26931;43.498;-1.506;2023-05-07T13:44:12;21.42;;;5.68;;
34643;SDS011;26931;43.498;-1.506;2023-05-07T13:46:38;21.67;;;5.70;;
34643;SDS011;26931;43.498;-1.506;2023-05-07T13:49:04;21.33;;;6.03;;
34643;SDS011;26931;43.498;-1.506;2023-05-07T13:51:30;22.33;;;6.88;;
34643;SDS011;26931;43.498;-1.506;2023-05-07T13:53:57;19.60;;;5.72;;
34643;SDS011;26931;43.498;-1.506;2023-05-07T13:56:23;20.67;;;6.28;;
34643;SDS011;26931;43.498;-1.506;2023-05-07T13:58:49;24.92;;;6.53;;
34643;SDS011;26931;43.498;-1.506;2023-05-07T14:01:15;23.77;;;6.15;;
34643;SDS011;26931;43.498;-1.506;2023-05-07T14:03:41;20.30;;;5.75;;
34643;SDS011;26931;43.498;-1.506;2023-05-07T14:06:07;22.02;;;6.07;;
34643;SDS011;26931;43.498;-1.506;2023-05-07T14:08:33;20.02;;;6.32;;
34643;SDS011;26931;43.498;-1.506;2023-05-07T14:11:00;20.10;;;5.55;;
34643;SDS011;26931;43.498;-1.506;2023-05-07T14:13:26;27.30;;;5.90;;
34643;SDS011;26931;43.498;-1.506;2023-05-07T14:15:52;23.08;;;6.32;;
34643;SDS011;26931;43.498;-1.506;2023-05-07T14:18:18;23.23;;;5.65;;
34643;SDS011;26931;43.498;-1.506;2023-05-07T14:20:44;23.38;;;6.22;;
34643;SDS011;26931;43.498;-1.506;2023-05-07T14:23:11;16.73;;;5.30;;
34643;SDS011;26931;43.498;-1.506;2023-05-07T14:25:38;21.70;;;6.00;;
34643;SDS011;26931;43.498;-1.506;2023-05-07T14:28:08;19.08;;;5.88;;
34643;SDS011;26931;43.498;-1.506;2023-05-07T14:30:34;19.08;;;5.57;;
34643;SDS011;26931;43.498;-1.506;2023-05-07T14:33:00;24.50;;;5.68;;
34643;SDS011;26931;43.498;-1.506;2023-05-07T14:35:26;21.52;;;5.85;;
34643;SDS011;26931;43.498;-1.506;2023-05-07T14:37:52;20.35;;;5.82;;
34643;SDS011;26931;43.498;-1.506;2023-05-07T14:40:21;22.10;;;5.28;;
34643;SDS011;26931;43.498;-1.506;2023-05-07T14:42:53;19.10;;;6.30;;